sensor_id;sensor_type;location;lat;lon;timestamp;temperature;humidity
25825;DHT22;13658;44.534;18.694;2023-08-06T00:00:19;19.90;99.90
25825;DHT22;13658;44.534;18.694;2023-08-06T00:02:45;19.80;99.90
25825;DHT22;13658;44.534;18.694;2023-08-06T00:05:11;19.90;99.90
25825;DHT22;13658;44.534;18.694;2023-08-06T00:07:37;19.80;99.90
25825;DHT22;13658;44.534;18.694;2023-08-06T00:10:03;19.90;99.90
25825;DHT22;13658;44.534;18.694;2023-08-06T00:12:29;19.80;99.90
25825;DHT22;13658;44.534;18.694;2023-08-06T00:14:55;19.80;99.90
25825;DHT22;13658;44.534;18.694;2023-08-06T00:17:21;19.80;99.90
25825;DHT22;13658;44.534;18.694;2023-08-06T00:19:47;19.70;99.90
25825;DHT22;13658;44.534;18.694;2023-08-06T00:22:13;19.70;99.90
25825;DHT22;13658;44.534;18.694;2023-08-06T00:24:39;19.70;99.90
25825;DHT22;13658;44.534;18.694;2023-08-06T00:27:05;19.80;99.90
25825;DHT22;13658;44.534;18.694;2023-08-06T00:29:31;19.80;99.90
25825;DHT22;13658;44.534;18.694;2023-08-06T00:31:57;19.80;99.90
25825;DHT22;13658;44.534;18.694;2023-08-06T00:34:24;19.80;99.90
25825;DHT22;13658;44.534;18.694;2023-08-06T00:36:50;19.80;99.90
25825;DHT22;13658;44.534;18.694;2023-08-06T00:39:16;19.80;99.90
25825;DHT22;13658;44.534;18.694;2023-08-06T00:41:42;19.90;99.90
25825;DHT22;13658;44.534;18.694;2023-08-06T00:44:08;19.90;99.90
25825;DHT22;13658;44.534;18.694;2023-08-06T00:46:34;19.90;99.90
25825;DHT22;13658;44.534;18.694;2023-08-06T00:49:00;19.90;99.90
25825;DHT22;13658;44.534;18.694;2023-08-06T00:51:26;19.80;99.90
25825;DHT22;13658;44.534;18.694;2023-08-06T00:53:52;19.80;99.90
25825;DHT22;13658;44.534;18.694;2023-08-06T00:56:19;19.80;99.90
25825;DHT22;13658;44.534;18.694;2023-08-06T00:58:46;19.80;99.90
25825;DHT22;13658;44.534;18.694;2023-08-06T01:01:12;19.80;99.90
25825;DHT22;13658;44.534;18.694;2023-08-06T01:03:38;19.90;99.90
25825;DHT22;13658;44.534;18.694;2023-08-06T01:06:04;19.90;99.90
25825;DHT22;13658;44.534;18.694;2023-08-06T01:14:36;19.90;99.90
25825;DHT22;13658;44.534;18.694;2023-08-06T01:17:04;19.90;99.90
25825;DHT22;13658;44.534;18.694;2023-08-06T01:19:30;19.90;99.90
25825;DHT22;13658;44.534;18.694;2023-08-06T01:21:56;19.90;99.90
25825;DHT22;13658;44.534;18.694;2023-08-06T01:24:22;19.90;99.90
25825;DHT22;13658;44.534;18.694;2023-08-06T01:26:58;19.90;99.90
25825;DHT22;13658;44.534;18.694;2023-08-06T01:29:52;19.90;99.90
25825;DHT22;13658;44.534;18.694;2023-08-06T01:32:22;19.90;99.90
25825;DHT22;13658;44.534;18.694;2023-08-06T01:34:50;19.90;99.90
25825;DHT22;13658;44.534;18.694;2023-08-06T01:37:17;19.80;99.90
25825;DHT22;13658;44.534;18.694;2023-08-06T01:39:43;19.80;99.90
25825;DHT22;13658;44.534;18.694;2023-08-06T01:42:09;19.80;99.90
25825;DHT22;13658;44.534;18.694;2023-08-06T01:44:35;19.70;99.90
25825;DHT22;13658;44.534;18.694;2023-08-06T01:47:01;19.70;99.90
25825;DHT22;13658;44.534;18.694;2023-08-06T01:49:27;19.70;99.90
25825;DHT22;13658;44.534;18.694;2023-08-06T01:51:53;19.70;99.90
25825;DHT22;13658;44.534;18.694;2023-08-06T01:54:19;19.70;99.90
25825;DHT22;13658;44.534;18.694;2023-08-06T01:56:45;19.70;99.90
25825;DHT22;13658;44.534;18.694;2023-08-06T01:59:11;19.70;99.90
25825;DHT22;13658;44.534;18.694;2023-08-06T02:01:37;19.70;99.90
25825;DHT22;13658;44.534;18.694;2023-08-06T02:04:03;19.70;99.90
25825;DHT22;13658;44.534;18.694;2023-08-06T02:06:29;19.70;99.90
25825;DHT22;13658;44.534;18.694;2023-08-06T02:08:54;19.70;99.90
25825;DHT22;13658;44.534;18.694;2023-08-06T02:11:20;19.70;99.90
25825;DHT22;13658;44.534;18.694;2023-08-06T02:13:46;19.70;99.90
25825;DHT22;13658;44.534;18.694;2023-08-06T02:16:17;19.70;99.90
25825;DHT22;13658;44.534;18.694;2023-08-06T02:18:43;19.70;99.90
25825;DHT22;13658;44.534;18.694;2023-08-06T02:21:09;19.60;99.90
25825;DHT22;13658;44.534;18.694;2023-08-06T02:23:35;19.60;99.90
25825;DHT22;13658;44.534;18.694;2023-08-06T02:26:02;19.60;99.90
25825;DHT22;13658;44.534;18.694;2023-08-06T02:28:29;19.50;99.90
25825;DHT22;13658;44.534;18.694;2023-08-06T02:30:55;19.50;99.90
25825;DHT22;13658;44.534;18.694;2023-08-06T02:33:21;19.50;99.90
25825;DHT22;13658;44.534;18.694;2023-08-06T02:35:47;19.50;99.90
25825;DHT22;13658;44.534;18.694;2023-08-06T02:38:13;19.50;99.90
25825;DHT22;13658;44.534;18.694;2023-08-06T02:40:44;19.50;99.90
25825;DHT22;13658;44.534;18.694;2023-08-06T02:43:11;19.40;99.90
25825;DHT22;13658;44.534;18.694;2023-08-06T02:45:37;19.30;99.90
25825;DHT22;13658;44.534;18.694;2023-08-06T02:48:03;19.30;99.90
25825;DHT22;13658;44.534;18.694;2023-08-06T02:50:29;19.30;99.90
25825;DHT22;13658;44.534;18.694;2023-08-06T02:52:55;19.30;99.90
25825;DHT22;13658;44.534;18.694;2023-08-06T02:55:21;19.30;99.90
25825;DHT22;13658;44.534;18.694;2023-08-06T02:57:49;19.30;99.90
25825;DHT22;13658;44.534;18.694;2023-08-06T03:00:15;19.30;99.90
25825;DHT22;13658;44.534;18.694;2023-08-06T03:02:41;19.30;99.90
25825;DHT22;13658;44.534;18.694;2023-08-06T03:05:40;19.20;99.90
25825;DHT22;13658;44.534;18.694;2023-08-06T03:08:06;19.20;99.90
25825;DHT22;13658;44.534;18.694;2023-08-06T03:10:35;19.20;99.90
25825;DHT22;13658;44.534;18.694;2023-08-06T03:13:03;19.20;99.90
25825;DHT22;13658;44.534;18.694;2023-08-06T03:15:29;19.30;99.90
25825;DHT22;13658;44.534;18.694;2023-08-06T03:17:56;19.30;99.90
25825;DHT22;13658;44.534;18.694;2023-08-06T03:20:25;19.30;99.90
25825;DHT22;13658;44.534;18.694;2023-08-06T03:22:51;19.30;99.90
25825;DHT22;13658;44.534;18.694;2023-08-06T03:25:17;19.30;99.90
25825;DHT22;13658;44.534;18.694;2023-08-06T03:27:47;19.30;99.90
25825;DHT22;13658;44.534;18.694;2023-08-06T03:30:16;19.40;99.90
25825;DHT22;13658;44.534;18.694;2023-08-06T03:32:42;19.30;99.90
25825;DHT22;13658;44.534;18.694;2023-08-06T03:35:09;19.40;99.90
25825;DHT22;13658;44.534;18.694;2023-08-06T03:37:35;19.30;99.90
25825;DHT22;13658;44.534;18.694;2023-08-06T03:40:01;19.30;99.90
25825;DHT22;13658;44.534;18.694;2023-08-06T03:42:27;19.30;99.90
25825;DHT22;13658;44.534;18.694;2023-08-06T03:44:53;19.30;99.90
25825;DHT22;13658;44.534;18.694;2023-08-06T03:47:19;19.20;99.90
25825;DHT22;13658;44.534;18.694;2023-08-06T03:49:48;19.30;99.90
25825;DHT22;13658;44.534;18.694;2023-08-06T03:52:16;19.30;99.90
25825;DHT22;13658;44.534;18.694;2023-08-06T03:54:41;19.30;99.90
25825;DHT22;13658;44.534;18.694;2023-08-06T03:57:09;19.30;99.90
25825;DHT22;13658;44.534;18.694;2023-08-06T03:59:35;19.30;99.90
25825;DHT22;13658;44.534;18.694;2023-08-06T04:02:01;19.30;99.90
25825;DHT22;13658;44.534;18.694;2023-08-06T04:04:28;19.30;99.90
25825;DHT22;13658;44.534;18.694;2023-08-06T04:06:54;19.20;99.90
25825;DHT22;13658;44.534;18.694;2023-08-06T04:09:21;19.30;99.90
25825;DHT22;13658;44.534;18.694;2023-08-06T04:11:47;19.20;99.90
25825;DHT22;13658;44.534;18.694;2023-08-06T04:14:13;19.20;99.90
25825;DHT22;13658;44.534;18.694;2023-08-06T04:16:39;19.20;99.90
25825;DHT22;13658;44.534;18.694;2023-08-06T04:19:05;19.30;99.90
25825;DHT22;13658;44.534;18.694;2023-08-06T04:21:32;19.30;99.90
25825;DHT22;13658;44.534;18.694;2023-08-06T04:23:59;19.30;99.90
25825;DHT22;13658;44.534;18.694;2023-08-06T04:26:25;19.30;99.90
25825;DHT22;13658;44.534;18.694;2023-08-06T04:28:51;19.30;99.90
25825;DHT22;13658;44.534;18.694;2023-08-06T04:31:18;19.30;99.90
25825;DHT22;13658;44.534;18.694;2023-08-06T04:33:44;19.30;99.90
25825;DHT22;13658;44.534;18.694;2023-08-06T04:36:13;19.40;99.90
25825;DHT22;13658;44.534;18.694;2023-08-06T04:38:39;19.40;99.90
25825;DHT22;13658;44.534;18.694;2023-08-06T04:41:07;19.40;99.90
25825;DHT22;13658;44.534;18.694;2023-08-06T04:43:34;19.50;99.90
25825;DHT22;13658;44.534;18.694;2023-08-06T04:46:00;19.50;99.90
25825;DHT22;13658;44.534;18.694;2023-08-06T04:48:26;19.50;99.90
25825;DHT22;13658;44.534;18.694;2023-08-06T04:50:52;19.50;99.90
25825;DHT22;13658;44.534;18.694;2023-08-06T04:53:18;19.50;99.90
25825;DHT22;13658;44.534;18.694;2023-08-06T04:55:44;19.50;99.90
25825;DHT22;13658;44.534;18.694;2023-08-06T04:58:10;19.60;99.90
25825;DHT22;13658;44.534;18.694;2023-08-06T05:00:36;19.70;99.90
25825;DHT22;13658;44.534;18.694;2023-08-06T05:03:02;19.60;99.90
25825;DHT22;13658;44.534;18.694;2023-08-06T05:05:28;19.70;99.90
25825;DHT22;13658;44.534;18.694;2023-08-06T05:07:56;19.90;99.90
25825;DHT22;13658;44.534;18.694;2023-08-06T05:10:25;20.00;99.90
25825;DHT22;13658;44.534;18.694;2023-08-06T05:12:51;20.00;99.90
25825;DHT22;13658;44.534;18.694;2023-08-06T05:15:18;20.10;99.90
25825;DHT22;13658;44.534;18.694;2023-08-06T05:17:44;20.20;99.90
25825;DHT22;13658;44.534;18.694;2023-08-06T05:20:10;20.20;99.90
25825;DHT22;13658;44.534;18.694;2023-08-06T05:22:36;20.20;99.90
25825;DHT22;13658;44.534;18.694;2023-08-06T05:25:02;20.20;99.90
25825;DHT22;13658;44.534;18.694;2023-08-06T05:27:28;20.10;99.90
25825;DHT22;13658;44.534;18.694;2023-08-06T05:29:55;20.20;99.90
25825;DHT22;13658;44.534;18.694;2023-08-06T05:32:22;20.20;99.90
25825;DHT22;13658;44.534;18.694;2023-08-06T05:34:48;20.20;99.90
25825;DHT22;13658;44.534;18.694;2023-08-06T05:37:14;20.30;99.90
25825;DHT22;13658;44.534;18.694;2023-08-06T05:39:40;20.40;99.90
25825;DHT22;13658;44.534;18.694;2023-08-06T05:42:06;20.40;99.90
25825;DHT22;13658;44.534;18.694;2023-08-06T05:44:32;20.40;99.90
25825;DHT22;13658;44.534;18.694;2023-08-06T05:46:58;20.40;99.90
25825;DHT22;13658;44.534;18.694;2023-08-06T05:49:24;20.40;99.90
25825;DHT22;13658;44.534;18.694;2023-08-06T05:51:50;20.50;99.90
25825;DHT22;13658;44.534;18.694;2023-08-06T05:54:19;20.50;99.90
25825;DHT22;13658;44.534;18.694;2023-08-06T05:56:45;20.60;99.90
25825;DHT22;13658;44.534;18.694;2023-08-06T05:59:11;20.60;99.90
25825;DHT22;13658;44.534;18.694;2023-08-06T06:01:37;20.60;99.90
25825;DHT22;13658;44.534;18.694;2023-08-06T06:04:03;20.50;99.90
25825;DHT22;13658;44.534;18.694;2023-08-06T06:06:29;20.50;99.90
25825;DHT22;13658;44.534;18.694;2023-08-06T06:08:55;20.60;99.90
25825;DHT22;13658;44.534;18.694;2023-08-06T06:11:21;20.70;99.90
25825;DHT22;13658;44.534;18.694;2023-08-06T06:13:51;20.60;99.90
25825;DHT22;13658;44.534;18.694;2023-08-06T06:16:17;20.60;99.90
25825;DHT22;13658;44.534;18.694;2023-08-06T06:18:43;20.70;99.90
25825;DHT22;13658;44.534;18.694;2023-08-06T06:21:10;20.60;99.90
25825;DHT22;13658;44.534;18.694;2023-08-06T06:23:36;20.70;99.90
25825;DHT22;13658;44.534;18.694;2023-08-06T06:26:02;20.80;99.90
25825;DHT22;13658;44.534;18.694;2023-08-06T06:28:28;20.80;99.90
25825;DHT22;13658;44.534;18.694;2023-08-06T06:30:54;20.80;99.90
25825;DHT22;13658;44.534;18.694;2023-08-06T06:33:25;20.90;99.90
25825;DHT22;13658;44.534;18.694;2023-08-06T06:35:51;21.10;99.90
25825;DHT22;13658;44.534;18.694;2023-08-06T06:38:17;21.30;99.90
25825;DHT22;13658;44.534;18.694;2023-08-06T06:40:43;21.40;99.90
25825;DHT22;13658;44.534;18.694;2023-08-06T06:43:09;21.70;99.90
25825;DHT22;13658;44.534;18.694;2023-08-06T06:45:34;21.80;99.90
25825;DHT22;13658;44.534;18.694;2023-08-06T06:48:01;22.00;99.90
25825;DHT22;13658;44.534;18.694;2023-08-06T06:50:27;22.00;99.90
25825;DHT22;13658;44.534;18.694;2023-08-06T06:52:52;22.00;99.90
25825;DHT22;13658;44.534;18.694;2023-08-06T06:55:18;22.00;99.90
25825;DHT22;13658;44.534;18.694;2023-08-06T06:57:44;21.90;99.90
25825;DHT22;13658;44.534;18.694;2023-08-06T07:00:11;22.10;99.90
25825;DHT22;13658;44.534;18.694;2023-08-06T07:02:37;22.20;99.90
25825;DHT22;13658;44.534;18.694;2023-08-06T07:05:03;22.60;99.90
25825;DHT22;13658;44.534;18.694;2023-08-06T07:07:29;23.30;99.90
25825;DHT22;13658;44.534;18.694;2023-08-06T07:09:55;24.40;99.90
25825;DHT22;13658;44.534;18.694;2023-08-06T07:12:21;25.60;99.90
25825;DHT22;13658;44.534;18.694;2023-08-06T07:14:47;25.60;99.90
25825;DHT22;13658;44.534;18.694;2023-08-06T07:17:13;25.60;99.90
25825;DHT22;13658;44.534;18.694;2023-08-06T07:19:39;25.70;99.90
25825;DHT22;13658;44.534;18.694;2023-08-06T07:22:05;25.90;99.90
25825;DHT22;13658;44.534;18.694;2023-08-06T07:24:31;25.50;99.90
25825;DHT22;13658;44.534;18.694;2023-08-06T07:26:58;25.40;99.90
25825;DHT22;13658;44.534;18.694;2023-08-06T07:29:24;25.30;99.90
25825;DHT22;13658;44.534;18.694;2023-08-06T07:31:50;25.50;99.90
25825;DHT22;13658;44.534;18.694;2023-08-06T07:34:16;25.50;99.90
25825;DHT22;13658;44.534;18.694;2023-08-06T07:36:46;26.40;99.90
25825;DHT22;13658;44.534;18.694;2023-08-06T07:39:12;27.00;99.90
25825;DHT22;13658;44.534;18.694;2023-08-06T07:41:38;27.10;99.90
25825;DHT22;13658;44.534;18.694;2023-08-06T07:44:04;27.00;99.90
25825;DHT22;13658;44.534;18.694;2023-08-06T07:46:30;26.90;99.90
25825;DHT22;13658;44.534;18.694;2023-08-06T07:48:57;26.70;99.90
25825;DHT22;13658;44.534;18.694;2023-08-06T07:51:23;27.30;99.90
25825;DHT22;13658;44.534;18.694;2023-08-06T07:53:49;27.70;99.90
25825;DHT22;13658;44.534;18.694;2023-08-06T07:56:15;27.60;99.90
25825;DHT22;13658;44.534;18.694;2023-08-06T07:58:41;27.30;99.90
25825;DHT22;13658;44.534;18.694;2023-08-06T08:01:07;26.50;99.90
25825;DHT22;13658;44.534;18.694;2023-08-06T08:03:33;26.10;99.90
25825;DHT22;13658;44.534;18.694;2023-08-06T08:05:59;25.70;99.90
25825;DHT22;13658;44.534;18.694;2023-08-06T08:08:25;25.80;99.90
25825;DHT22;13658;44.534;18.694;2023-08-06T08:10:51;25.90;99.90
25825;DHT22;13658;44.534;18.694;2023-08-06T08:13:17;25.90;99.90
25825;DHT22;13658;44.534;18.694;2023-08-06T08:15:43;25.60;99.90
25825;DHT22;13658;44.534;18.694;2023-08-06T08:18:09;25.70;99.90
25825;DHT22;13658;44.534;18.694;2023-08-06T08:20:35;25.70;99.90
25825;DHT22;13658;44.534;18.694;2023-08-06T08:23:01;25.50;99.90
25825;DHT22;13658;44.534;18.694;2023-08-06T08:25:28;25.10;99.90
25825;DHT22;13658;44.534;18.694;2023-08-06T08:27:55;25.30;99.90
25825;DHT22;13658;44.534;18.694;2023-08-06T08:30:21;26.30;99.90
25825;DHT22;13658;44.534;18.694;2023-08-06T08:32:48;27.50;99.90
25825;DHT22;13658;44.534;18.694;2023-08-06T08:35:15;28.70;99.90
25825;DHT22;13658;44.534;18.694;2023-08-06T08:37:42;30.00;99.90
25825;DHT22;13658;44.534;18.694;2023-08-06T08:40:09;31.20;99.90
25825;DHT22;13658;44.534;18.694;2023-08-06T08:42:36;32.20;99.90
25825;DHT22;13658;44.534;18.694;2023-08-06T08:45:04;33.00;99.90
25825;DHT22;13658;44.534;18.694;2023-08-06T08:47:31;33.20;99.90
25825;DHT22;13658;44.534;18.694;2023-08-06T08:49:58;33.10;99.90
25825;DHT22;13658;44.534;18.694;2023-08-06T08:52:25;33.10;99.90
25825;DHT22;13658;44.534;18.694;2023-08-06T08:54:53;33.00;99.90
25825;DHT22;13658;44.534;18.694;2023-08-06T08:57:20;32.80;99.90
25825;DHT22;13658;44.534;18.694;2023-08-06T08:59:46;32.60;99.90
25825;DHT22;13658;44.534;18.694;2023-08-06T09:02:13;30.90;99.90
25825;DHT22;13658;44.534;18.694;2023-08-06T09:04:41;31.40;99.90
25825;DHT22;13658;44.534;18.694;2023-08-06T09:07:08;31.90;99.90
25825;DHT22;13658;44.534;18.694;2023-08-06T09:09:35;32.50;99.90
25825;DHT22;13658;44.534;18.694;2023-08-06T09:12:12;32.90;99.90
25825;DHT22;13658;44.534;18.694;2023-08-06T09:14:40;32.80;99.90
25825;DHT22;13658;44.534;18.694;2023-08-06T09:17:06;33.00;99.90
25825;DHT22;13658;44.534;18.694;2023-08-06T09:19:32;33.60;99.90
25825;DHT22;13658;44.534;18.694;2023-08-06T09:21:58;33.20;99.90
25825;DHT22;13658;44.534;18.694;2023-08-06T09:24:24;32.90;99.90
25825;DHT22;13658;44.534;18.694;2023-08-06T09:26:52;32.10;99.90
25825;DHT22;13658;44.534;18.694;2023-08-06T09:29:18;31.00;99.90
25825;DHT22;13658;44.534;18.694;2023-08-06T09:31:48;30.80;99.90
25825;DHT22;13658;44.534;18.694;2023-08-06T09:34:16;30.80;99.90
25825;DHT22;13658;44.534;18.694;2023-08-06T09:36:43;30.30;99.90
25825;DHT22;13658;44.534;18.694;2023-08-06T09:39:16;30.70;99.90
25825;DHT22;13658;44.534;18.694;2023-08-06T09:41:43;30.60;99.90
25825;DHT22;13658;44.534;18.694;2023-08-06T09:46:42;30.90;99.90
25825;DHT22;13658;44.534;18.694;2023-08-06T09:49:08;30.70;99.90
25825;DHT22;13658;44.534;18.694;2023-08-06T09:51:38;30.10;99.90
25825;DHT22;13658;44.534;18.694;2023-08-06T09:54:06;29.60;99.90
25825;DHT22;13658;44.534;18.694;2023-08-06T09:56:33;28.90;99.90
25825;DHT22;13658;44.534;18.694;2023-08-06T09:59:06;28.40;99.90
25825;DHT22;13658;44.534;18.694;2023-08-06T10:01:34;27.80;99.90
25825;DHT22;13658;44.534;18.694;2023-08-06T10:04:05;27.20;99.90
25825;DHT22;13658;44.534;18.694;2023-08-06T10:06:36;27.10;99.90
25825;DHT22;13658;44.534;18.694;2023-08-06T10:09:06;26.70;99.90
25825;DHT22;13658;44.534;18.694;2023-08-06T10:11:33;26.70;99.90
25825;DHT22;13658;44.534;18.694;2023-08-06T10:14:06;26.80;99.90
25825;DHT22;13658;44.534;18.694;2023-08-06T10:16:34;27.10;99.90
25825;DHT22;13658;44.534;18.694;2023-08-06T10:19:01;27.30;99.90
25825;DHT22;13658;44.534;18.694;2023-08-06T10:21:31;27.50;99.90
25825;DHT22;13658;44.534;18.694;2023-08-06T10:23:57;27.30;99.90
25825;DHT22;13658;44.534;18.694;2023-08-06T10:26:27;26.90;99.90
25825;DHT22;13658;44.534;18.694;2023-08-06T10:28:54;26.70;99.90
25825;DHT22;13658;44.534;18.694;2023-08-06T10:31:24;26.40;99.90
25825;DHT22;13658;44.534;18.694;2023-08-06T10:34:06;26.20;99.90
25825;DHT22;13658;44.534;18.694;2023-08-06T10:36:33;26.40;99.90
25825;DHT22;13658;44.534;18.694;2023-08-06T10:38:59;26.50;99.90
25825;DHT22;13658;44.534;18.694;2023-08-06T10:41:29;26.80;99.90
25825;DHT22;13658;44.534;18.694;2023-08-06T10:44:09;26.80;99.90
25825;DHT22;13658;44.534;18.694;2023-08-06T10:46:35;27.00;99.90
25825;DHT22;13658;44.534;18.694;2023-08-06T10:49:03;27.20;99.90
25825;DHT22;13658;44.534;18.694;2023-08-06T10:51:29;27.30;99.90
25825;DHT22;13658;44.534;18.694;2023-08-06T10:53:55;27.50;99.90
25825;DHT22;13658;44.534;18.694;2023-08-06T10:56:22;27.00;99.90
25825;DHT22;13658;44.534;18.694;2023-08-06T10:58:50;27.30;99.90
25825;DHT22;13658;44.534;18.694;2023-08-06T11:01:17;27.30;99.90
25825;DHT22;13658;44.534;18.694;2023-08-06T11:03:45;27.40;99.90
25825;DHT22;13658;44.534;18.694;2023-08-06T11:06:17;27.40;99.90
25825;DHT22;13658;44.534;18.694;2023-08-06T11:08:51;27.30;99.90
25825;DHT22;13658;44.534;18.694;2023-08-06T11:11:19;27.10;99.90
25825;DHT22;13658;44.534;18.694;2023-08-06T11:13:47;27.10;99.90
25825;DHT22;13658;44.534;18.694;2023-08-06T11:16:14;27.00;99.90
25825;DHT22;13658;44.534;18.694;2023-08-06T11:18:41;26.60;99.90
25825;DHT22;13658;44.534;18.694;2023-08-06T11:21:10;26.20;99.90
25825;DHT22;13658;44.534;18.694;2023-08-06T11:23:37;25.90;99.90
25825;DHT22;13658;44.534;18.694;2023-08-06T11:26:03;25.50;99.90
25825;DHT22;13658;44.534;18.694;2023-08-06T11:28:30;25.30;99.90
25825;DHT22;13658;44.534;18.694;2023-08-06T11:30:56;25.10;99.90
25825;DHT22;13658;44.534;18.694;2023-08-06T11:33:24;24.80;99.90
25825;DHT22;13658;44.534;18.694;2023-08-06T11:35:57;24.50;99.90
25825;DHT22;13658;44.534;18.694;2023-08-06T11:38:30;24.40;99.90
25825;DHT22;13658;44.534;18.694;2023-08-06T11:40:56;24.10;99.90
25825;DHT22;13658;44.534;18.694;2023-08-06T11:43:22;23.90;99.90
25825;DHT22;13658;44.534;18.694;2023-08-06T11:45:49;23.70;99.90
25825;DHT22;13658;44.534;18.694;2023-08-06T11:48:16;23.50;99.90
25825;DHT22;13658;44.534;18.694;2023-08-06T11:50:43;23.30;99.90
25825;DHT22;13658;44.534;18.694;2023-08-06T11:53:13;23.20;99.90
25825;DHT22;13658;44.534;18.694;2023-08-06T11:55:40;23.10;99.90
25825;DHT22;13658;44.534;18.694;2023-08-06T11:58:06;22.90;99.90
25825;DHT22;13658;44.534;18.694;2023-08-06T12:00:32;22.90;99.90
25825;DHT22;13658;44.534;18.694;2023-08-06T12:02:58;22.80;99.90
25825;DHT22;13658;44.534;18.694;2023-08-06T12:05:30;22.70;99.90
25825;DHT22;13658;44.534;18.694;2023-08-06T12:07:57;22.50;99.90
25825;DHT22;13658;44.534;18.694;2023-08-06T12:10:27;22.20;99.90
25825;DHT22;13658;44.534;18.694;2023-08-06T12:12:54;21.90;99.90
25825;DHT22;13658;44.534;18.694;2023-08-06T12:15:20;21.70;99.90
25825;DHT22;13658;44.534;18.694;2023-08-06T12:17:46;21.50;99.90
25825;DHT22;13658;44.534;18.694;2023-08-06T12:20:12;21.30;99.90
25825;DHT22;13658;44.534;18.694;2023-08-06T12:22:39;21.10;99.90
25825;DHT22;13658;44.534;18.694;2023-08-06T12:25:11;20.90;99.90
25825;DHT22;13658;44.534;18.694;2023-08-06T12:27:41;20.90;99.90
25825;DHT22;13658;44.534;18.694;2023-08-06T12:30:08;20.80;99.90
25825;DHT22;13658;44.534;18.694;2023-08-06T12:32:35;20.60;99.90
25825;DHT22;13658;44.534;18.694;2023-08-06T12:35:01;20.60;99.90
25825;DHT22;13658;44.534;18.694;2023-08-06T12:37:27;20.40;99.90
25825;DHT22;13658;44.534;18.694;2023-08-06T12:39:53;20.40;99.90
25825;DHT22;13658;44.534;18.694;2023-08-06T12:42:20;20.30;99.90
25825;DHT22;13658;44.534;18.694;2023-08-06T12:44:50;20.30;99.90
25825;DHT22;13658;44.534;18.694;2023-08-06T12:47:16;20.30;99.90
25825;DHT22;13658;44.534;18.694;2023-08-06T12:49:42;20.40;99.90
25825;DHT22;13658;44.534;18.694;2023-08-06T12:52:08;20.40;99.90
25825;DHT22;13658;44.534;18.694;2023-08-06T12:54:35;20.50;99.90
25825;DHT22;13658;44.534;18.694;2023-08-06T12:57:04;20.30;99.90
25825;DHT22;13658;44.534;18.694;2023-08-06T12:59:31;20.30;99.90
25825;DHT22;13658;44.534;18.694;2023-08-06T13:01:59;20.20;99.90
25825;DHT22;13658;44.534;18.694;2023-08-06T13:04:24;20.20;99.90
25825;DHT22;13658;44.534;18.694;2023-08-06T13:06:51;20.10;99.90
25825;DHT22;13658;44.534;18.694;2023-08-06T13:09:16;20.20;99.90
25825;DHT22;13658;44.534;18.694;2023-08-06T13:11:43;20.20;99.90
25825;DHT22;13658;44.534;18.694;2023-08-06T13:14:13;20.30;99.90
25825;DHT22;13658;44.534;18.694;2023-08-06T13:16:41;20.30;99.90
25825;DHT22;13658;44.534;18.694;2023-08-06T13:19:08;20.40;99.90
25825;DHT22;13658;44.534;18.694;2023-08-06T13:24:12;21.00;99.90
25825;DHT22;13658;44.534;18.694;2023-08-06T13:26:38;21.30;99.90
25825;DHT22;13658;44.534;18.694;2023-08-06T13:29:04;21.30;99.90
25825;DHT22;13658;44.534;18.694;2023-08-06T13:31:32;21.20;99.90
25825;DHT22;13658;44.534;18.694;2023-08-06T13:33:58;21.00;99.90
25825;DHT22;13658;44.534;18.694;2023-08-06T13:36:28;20.60;99.90
25825;DHT22;13658;44.534;18.694;2023-08-06T13:38:54;20.30;99.90
25825;DHT22;13658;44.534;18.694;2023-08-06T13:41:20;20.20;99.90
25825;DHT22;13658;44.534;18.694;2023-08-06T13:43:46;20.10;99.90
25825;DHT22;13658;44.534;18.694;2023-08-06T13:46:12;19.90;99.90
25825;DHT22;13658;44.534;18.694;2023-08-06T13:48:43;19.80;99.90
25825;DHT22;13658;44.534;18.694;2023-08-06T13:51:10;19.80;99.90
25825;DHT22;13658;44.534;18.694;2023-08-06T13:53:37;19.80;99.90
25825;DHT22;13658;44.534;18.694;2023-08-06T13:56:03;19.90;99.90
25825;DHT22;13658;44.534;18.694;2023-08-06T13:58:29;20.00;99.90
25825;DHT22;13658;44.534;18.694;2023-08-06T14:00:55;20.00;99.90
25825;DHT22;13658;44.534;18.694;2023-08-06T14:03:22;19.90;99.90
25825;DHT22;13658;44.534;18.694;2023-08-06T14:05:48;19.80;99.90
25825;DHT22;13658;44.534;18.694;2023-08-06T14:08:15;19.80;99.90
25825;DHT22;13658;44.534;18.694;2023-08-06T14:10:44;19.80;99.90
25825;DHT22;13658;44.534;18.694;2023-08-06T14:13:10;19.70;99.90
25825;DHT22;13658;44.534;18.694;2023-08-06T14:15:36;19.70;99.90
25825;DHT22;13658;44.534;18.694;2023-08-06T14:18:05;19.70;99.90
25825;DHT22;13658;44.534;18.694;2023-08-06T14:20:30;19.70;99.90
25825;DHT22;13658;44.534;18.694;2023-08-06T14:22:57;19.70;99.90
25825;DHT22;13658;44.534;18.694;2023-08-06T14:25:23;19.70;99.90
25825;DHT22;13658;44.534;18.694;2023-08-06T14:27:49;19.80;99.90
25825;DHT22;13658;44.534;18.694;2023-08-06T14:30:14;20.00;99.90
25825;DHT22;13658;44.534;18.694;2023-08-06T14:32:40;20.20;99.90
25825;DHT22;13658;44.534;18.694;2023-08-06T14:35:06;20.40;99.90
25825;DHT22;13658;44.534;18.694;2023-08-06T14:37:32;20.60;99.90
25825;DHT22;13658;44.534;18.694;2023-08-06T14:39:58;20.70;99.90
25825;DHT22;13658;44.534;18.694;2023-08-06T14:42:24;20.80;99.90
25825;DHT22;13658;44.534;18.694;2023-08-06T14:44:50;20.80;99.90
25825;DHT22;13658;44.534;18.694;2023-08-06T14:47:16;20.80;99.90
25825;DHT22;13658;44.534;18.694;2023-08-06T14:49:42;20.90;99.90
25825;DHT22;13658;44.534;18.694;2023-08-06T14:52:08;20.70;99.90
25825;DHT22;13658;44.534;18.694;2023-08-06T14:54:34;20.70;99.90
25825;DHT22;13658;44.534;18.694;2023-08-06T14:57:00;20.80;99.90
25825;DHT22;13658;44.534;18.694;2023-08-06T14:59:26;20.60;99.90
25825;DHT22;13658;44.534;18.694;2023-08-06T15:01:52;20.40;99.90
25825;DHT22;13658;44.534;18.694;2023-08-06T15:04:18;20.20;99.90
25825;DHT22;13658;44.534;18.694;2023-08-06T15:06:44;20.10;99.90
25825;DHT22;13658;44.534;18.694;2023-08-06T15:09:11;20.00;99.90
25825;DHT22;13658;44.534;18.694;2023-08-06T15:11:37;19.90;99.90
25825;DHT22;13658;44.534;18.694;2023-08-06T15:14:04;19.70;99.90
25825;DHT22;13658;44.534;18.694;2023-08-06T15:16:33;19.70;99.90
25825;DHT22;13658;44.534;18.694;2023-08-06T15:19:00;19.60;99.90
25825;DHT22;13658;44.534;18.694;2023-08-06T15:21:27;19.60;99.90
25825;DHT22;13658;44.534;18.694;2023-08-06T15:23:53;19.60;99.90